sensor_id;sensor_type;location;lat;lon;timestamp;temperature;humidity
19050;DHT22;9657;45.940;12.840;2023-03-23T00:01:25;16.80;66.10
19050;DHT22;9657;45.940;12.840;2023-03-23T00:03:56;16.80;66.10
19050;DHT22;9657;45.940;12.840;2023-03-23T00:06:25;16.80;66.10
19050;DHT22;9657;45.940;12.840;2023-03-23T00:08:54;16.80;66.10
19050;DHT22;9657;45.940;12.840;2023-03-23T00:11:26;16.80;66.10
19050;DHT22;9657;45.940;12.840;2023-03-23T00:13:56;16.80;66.10
19050;DHT22;9657;45.940;12.840;2023-03-23T00:16:28;16.80;66.90
19050;DHT22;9657;45.940;12.840;2023-03-23T00:18:57;16.80;66.10
19050;DHT22;9657;45.940;12.840;2023-03-23T00:21:25;16.80;66.10
19050;DHT22;9657;45.940;12.840;2023-03-23T00:24:02;16.80;66.10
19050;DHT22;9657;45.940;12.840;2023-03-23T00:26:30;16.80;66.10
19050;DHT22;9657;45.940;12.840;2023-03-23T00:29:00;16.80;66.10
19050;DHT22;9657;45.940;12.840;2023-03-23T00:31:28;16.80;66.10
19050;DHT22;9657;45.940;12.840;2023-03-23T00:33:58;16.80;66.10
19050;DHT22;9657;45.940;12.840;2023-03-23T00:36:28;16.80;66.20
19050;DHT22;9657;45.940;12.840;2023-03-23T00:38:55;16.80;66.20
19050;DHT22;9657;45.940;12.840;2023-03-23T00:41:27;16.80;66.10
19050;DHT22;9657;45.940;12.840;2023-03-23T00:43:55;16.70;66.10
19050;DHT22;9657;45.940;12.840;2023-03-23T00:46:23;16.70;66.50
19050;DHT22;9657;45.940;12.840;2023-03-23T00:48:50;16.70;66.10
19050;DHT22;9657;45.940;12.840;2023-03-23T00:51:18;16.80;66.10
19050;DHT22;9657;45.940;12.840;2023-03-23T00:53:45;16.70;66.10
19050;DHT22;9657;45.940;12.840;2023-03-23T00:56:13;16.70;66.10
19050;DHT22;9657;45.940;12.840;2023-03-23T00:58:42;16.70;66.10
19050;DHT22;9657;45.940;12.840;2023-03-23T01:01:09;16.70;66.10
19050;DHT22;9657;45.940;12.840;2023-03-23T01:03:36;16.70;66.10
19050;DHT22;9657;45.940;12.840;2023-03-23T01:06:07;16.70;66.10
19050;DHT22;9657;45.940;12.840;2023-03-23T01:08:38;16.70;66.10
19050;DHT22;9657;45.940;12.840;2023-03-23T01:11:12;16.70;66.10
19050;DHT22;9657;45.940;12.840;2023-03-23T01:13:41;16.70;66.10
19050;DHT22;9657;45.940;12.840;2023-03-23T01:16:10;16.70;66.10
19050;DHT22;9657;45.940;12.840;2023-03-23T01:18:37;16.70;66.10
19050;DHT22;9657;45.940;12.840;2023-03-23T01:21:06;16.70;66.10
19050;DHT22;9657;45.940;12.840;2023-03-23T01:23:34;16.70;66.10
19050;DHT22;9657;45.940;12.840;2023-03-23T01:26:05;16.70;66.10
19050;DHT22;9657;45.940;12.840;2023-03-23T01:28:32;16.70;66.90
19050;DHT22;9657;45.940;12.840;2023-03-23T01:31:03;16.70;66.10
19050;DHT22;9657;45.940;12.840;2023-03-23T01:33:30;16.70;66.10
19050;DHT22;9657;45.940;12.840;2023-03-23T01:35:57;16.70;66.10
19050;DHT22;9657;45.940;12.840;2023-03-23T01:38:25;16.70;66.10
19050;DHT22;9657;45.940;12.840;2023-03-23T01:40:52;16.70;66.10
19050;DHT22;9657;45.940;12.840;2023-03-23T01:43:19;16.70;66.10
19050;DHT22;9657;45.940;12.840;2023-03-23T01:45:46;16.70;66.10
19050;DHT22;9657;45.940;12.840;2023-03-23T01:48:17;16.70;66.10
19050;DHT22;9657;45.940;12.840;2023-03-23T01:50:52;16.70;66.10
19050;DHT22;9657;45.940;12.840;2023-03-23T01:53:20;16.70;66.10
19050;DHT22;9657;45.940;12.840;2023-03-23T01:55:50;16.70;66.10
19050;DHT22;9657;45.940;12.840;2023-03-23T01:58:21;16.70;66.10
19050;DHT22;9657;45.940;12.840;2023-03-23T02:03:28;16.70;66.90
19050;DHT22;9657;45.940;12.840;2023-03-23T02:05:57;16.70;66.10
19050;DHT22;9657;45.940;12.840;2023-03-23T02:08:26;16.70;66.10
19050;DHT22;9657;45.940;12.840;2023-03-23T02:10:54;16.70;66.10
19050;DHT22;9657;45.940;12.840;2023-03-23T02:13:21;16.70;66.10
19050;DHT22;9657;45.940;12.840;2023-03-23T02:15:55;16.70;66.10
19050;DHT22;9657;45.940;12.840;2023-03-23T02:18:35;16.70;66.10
19050;DHT22;9657;45.940;12.840;2023-03-23T02:21:29;16.70;66.10
19050;DHT22;9657;45.940;12.840;2023-03-23T02:27:00;16.70;66.10
19050;DHT22;9657;45.940;12.840;2023-03-23T02:35:38;16.60;66.00
19050;DHT22;9657;45.940;12.840;2023-03-23T02:38:09;16.60;66.10
19050;DHT22;9657;45.940;12.840;2023-03-23T02:40:42;16.60;66.10
19050;DHT22;9657;45.940;12.840;2023-03-23T02:43:12;16.60;66.00
19050;DHT22;9657;45.940;12.840;2023-03-23T02:45:42;16.60;66.10
19050;DHT22;9657;45.940;12.840;2023-03-23T02:48:13;16.60;66.00
19050;DHT22;9657;45.940;12.840;2023-03-23T02:50:45;16.60;66.00
19050;DHT22;9657;45.940;12.840;2023-03-23T02:53:16;16.60;66.00
19050;DHT22;9657;45.940;12.840;2023-03-23T02:55:46;16.60;66.00
19050;DHT22;9657;45.940;12.840;2023-03-23T02:58:14;16.60;66.10
19050;DHT22;9657;45.940;12.840;2023-03-23T03:00:41;16.60;66.10
19050;DHT22;9657;45.940;12.840;2023-03-23T03:03:12;16.60;66.00
19050;DHT22;9657;45.940;12.840;2023-03-23T03:05:46;16.60;66.80
19050;DHT22;9657;45.940;12.840;2023-03-23T03:08:24;16.60;66.10
19050;DHT22;9657;45.940;12.840;2023-03-23T03:10:57;16.60;66.10
19050;DHT22;9657;45.940;12.840;2023-03-23T03:13:31;16.60;66.10
19050;DHT22;9657;45.940;12.840;2023-03-23T03:16:02;16.60;66.10
19050;DHT22;9657;45.940;12.840;2023-03-23T03:18:33;16.60;66.10
19050;DHT22;9657;45.940;12.840;2023-03-23T03:21:08;16.60;66.10
19050;DHT22;9657;45.940;12.840;2023-03-23T03:23:39;16.60;66.10
19050;DHT22;9657;45.940;12.840;2023-03-23T03:26:11;16.60;66.10
19050;DHT22;9657;45.940;12.840;2023-03-23T03:28:43;16.60;66.10
19050;DHT22;9657;45.940;12.840;2023-03-23T03:31:15;16.60;66.10
19050;DHT22;9657;45.940;12.840;2023-03-23T03:33:43;16.60;66.10
19050;DHT22;9657;45.940;12.840;2023-03-23T03:36:18;16.60;66.10
19050;DHT22;9657;45.940;12.840;2023-03-23T03:38:48;16.60;66.10
19050;DHT22;9657;45.940;12.840;2023-03-23T03:41:16;16.60;66.10
19050;DHT22;9657;45.940;12.840;2023-03-23T03:43:44;16.60;66.10
19050;DHT22;9657;45.940;12.840;2023-03-23T03:46:11;16.60;66.10
19050;DHT22;9657;45.940;12.840;2023-03-23T03:48:38;16.60;66.10
19050;DHT22;9657;45.940;12.840;2023-03-23T03:51:05;16.60;66.10
19050;DHT22;9657;45.940;12.840;2023-03-23T03:53:35;16.60;66.10
19050;DHT22;9657;45.940;12.840;2023-03-23T03:56:02;16.60;66.10
19050;DHT22;9657;45.940;12.840;2023-03-23T03:58:30;16.60;66.10
19050;DHT22;9657;45.940;12.840;2023-03-23T04:00:58;16.60;66.10
19050;DHT22;9657;45.940;12.840;2023-03-23T04:03:26;16.60;66.10
19050;DHT22;9657;45.940;12.840;2023-03-23T04:05:54;16.60;66.10
19050;DHT22;9657;45.940;12.840;2023-03-23T04:08:22;16.60;66.10
19050;DHT22;9657;45.940;12.840;2023-03-23T04:10:50;16.60;66.10
19050;DHT22;9657;45.940;12.840;2023-03-23T04:13:19;16.60;66.10
19050;DHT22;9657;45.940;12.840;2023-03-23T04:15:47;16.60;66.10
19050;DHT22;9657;45.940;12.840;2023-03-23T04:18:14;16.60;66.10
19050;DHT22;9657;45.940;12.840;2023-03-23T04:20:43;16.60;66.10
19050;DHT22;9657;45.940;12.840;2023-03-23T04:23:13;16.50;66.10
19050;DHT22;9657;45.940;12.840;2023-03-23T04:25:40;16.50;66.10
19050;DHT22;9657;45.940;12.840;2023-03-23T04:28:10;16.50;66.10
19050;DHT22;9657;45.940;12.840;2023-03-23T04:30:37;16.50;66.10
19050;DHT22;9657;45.940;12.840;2023-03-23T04:33:04;16.50;66.10
19050;DHT22;9657;45.940;12.840;2023-03-23T04:35:31;16.50;66.10
19050;DHT22;9657;45.940;12.840;2023-03-23T04:37:59;16.50;66.10
19050;DHT22;9657;45.940;12.840;2023-03-23T04:40:26;16.50;66.10
19050;DHT22;9657;45.940;12.840;2023-03-23T04:42:53;16.50;66.10
19050;DHT22;9657;45.940;12.840;2023-03-23T04:45:24;16.50;66.10
19050;DHT22;9657;45.940;12.840;2023-03-23T04:47:52;16.50;66.10
19050;DHT22;9657;45.940;12.840;2023-03-23T04:50:24;16.50;66.10
19050;DHT22;9657;45.940;12.840;2023-03-23T04:52:52;16.50;66.10
19050;DHT22;9657;45.940;12.840;2023-03-23T04:55:24;16.50;66.10
19050;DHT22;9657;45.940;12.840;2023-03-23T04:57:51;16.50;66.20
19050;DHT22;9657;45.940;12.840;2023-03-23T05:00:19;16.50;66.10
19050;DHT22;9657;45.940;12.840;2023-03-23T05:02:48;16.50;66.10
19050;DHT22;9657;45.940;12.840;2023-03-23T05:05:18;16.50;66.20
19050;DHT22;9657;45.940;12.840;2023-03-23T05:07:46;16.50;66.10
19050;DHT22;9657;45.940;12.840;2023-03-23T05:10:13;16.50;66.10
19050;DHT22;9657;45.940;12.840;2023-03-23T05:12:41;16.50;66.10
19050;DHT22;9657;45.940;12.840;2023-03-23T05:15:10;16.50;66.10
19050;DHT22;9657;45.940;12.840;2023-03-23T05:17:38;16.50;66.10
19050;DHT22;9657;45.940;12.840;2023-03-23T05:20:09;16.50;66.20
19050;DHT22;9657;45.940;12.840;2023-03-23T05:22:37;16.50;66.10
19050;DHT22;9657;45.940;12.840;2023-03-23T05:25:05;16.50;66.10
19050;DHT22;9657;45.940;12.840;2023-03-23T05:27:34;16.50;66.20
19050;DHT22;9657;45.940;12.840;2023-03-23T05:30:02;16.50;66.20
19050;DHT22;9657;45.940;12.840;2023-03-23T05:32:29;16.50;66.20
19050;DHT22;9657;45.940;12.840;2023-03-23T05:34:57;16.50;66.20
19050;DHT22;9657;45.940;12.840;2023-03-23T05:37:27;16.50;66.20
19050;DHT22;9657;45.940;12.840;2023-03-23T05:39:57;16.50;66.20
19050;DHT22;9657;45.940;12.840;2023-03-23T05:42:30;16.50;66.20
19050;DHT22;9657;45.940;12.840;2023-03-23T05:44:58;16.50;66.20
19050;DHT22;9657;45.940;12.840;2023-03-23T05:47:26;16.50;66.20
19050;DHT22;9657;45.940;12.840;2023-03-23T05:49:53;16.50;66.20
19050;DHT22;9657;45.940;12.840;2023-03-23T05:52:20;16.50;66.20
19050;DHT22;9657;45.940;12.840;2023-03-23T05:54:50;16.40;66.20
19050;DHT22;9657;45.940;12.840;2023-03-23T05:57:18;16.50;66.20
19050;DHT22;9657;45.940;12.840;2023-03-23T05:59:47;16.50;66.20
19050;DHT22;9657;45.940;12.840;2023-03-23T06:02:15;16.50;66.20
19050;DHT22;9657;45.940;12.840;2023-03-23T06:04:42;16.40;66.10
19050;DHT22;9657;45.940;12.840;2023-03-23T06:07:10;16.40;66.10
19050;DHT22;9657;45.940;12.840;2023-03-23T06:09:40;16.50;66.20
19050;DHT22;9657;45.940;12.840;2023-03-23T06:12:09;16.40;66.10
19050;DHT22;9657;45.940;12.840;2023-03-23T06:14:37;16.40;66.10
19050;DHT22;9657;45.940;12.840;2023-03-23T06:17:04;16.40;66.10
19050;DHT22;9657;45.940;12.840;2023-03-23T06:19:31;16.40;66.10
19050;DHT22;9657;45.940;12.840;2023-03-23T06:22:00;16.40;66.10
19050;DHT22;9657;45.940;12.840;2023-03-23T06:24:27;16.40;66.10
19050;DHT22;9657;45.940;12.840;2023-03-23T06:26:54;16.40;66.10
19050;DHT22;9657;45.940;12.840;2023-03-23T06:29:23;16.40;66.10
19050;DHT22;9657;45.940;12.840;2023-03-23T06:31:52;16.40;66.10
19050;DHT22;9657;45.940;12.840;2023-03-23T06:34:21;16.40;66.10
19050;DHT22;9657;45.940;12.840;2023-03-23T06:36:49;16.40;66.10
19050;DHT22;9657;45.940;12.840;2023-03-23T06:39:16;16.40;66.10
19050;DHT22;9657;45.940;12.840;2023-03-23T06:41:43;16.40;66.10
19050;DHT22;9657;45.940;12.840;2023-03-23T06:44:10;16.40;66.10
19050;DHT22;9657;45.940;12.840;2023-03-23T06:46:40;16.40;66.10
19050;DHT22;9657;45.940;12.840;2023-03-23T06:49:07;16.40;66.10
19050;DHT22;9657;45.940;12.840;2023-03-23T06:51:35;16.40;66.20
19050;DHT22;9657;45.940;12.840;2023-03-23T06:54:03;16.40;66.30
19050;DHT22;9657;45.940;12.840;2023-03-23T06:56:30;16.40;66.40
19050;DHT22;9657;45.940;12.840;2023-03-23T06:58:57;16.40;66.40
19050;DHT22;9657;45.940;12.840;2023-03-23T07:01:24;16.40;66.50
19050;DHT22;9657;45.940;12.840;2023-03-23T07:03:55;16.40;66.50
19050;DHT22;9657;45.940;12.840;2023-03-23T07:06:23;16.40;66.50
19050;DHT22;9657;45.940;12.840;2023-03-23T07:08:50;16.40;66.50
19050;DHT22;9657;45.940;12.840;2023-03-23T07:11:17;16.40;66.50
19050;DHT22;9657;45.940;12.840;2023-03-23T07:13:44;16.40;66.50
19050;DHT22;9657;45.940;12.840;2023-03-23T07:16:12;16.40;66.50
19050;DHT22;9657;45.940;12.840;2023-03-23T07:18:38;16.40;66.60
19050;DHT22;9657;45.940;12.840;2023-03-23T07:21:07;16.40;66.60
19050;DHT22;9657;45.940;12.840;2023-03-23T07:23:34;16.40;66.60
19050;DHT22;9657;45.940;12.840;2023-03-23T07:26:02;16.40;66.50
19050;DHT22;9657;45.940;12.840;2023-03-23T07:28:30;16.40;66.50
19050;DHT22;9657;45.940;12.840;2023-03-23T07:30:57;16.40;66.50
19050;DHT22;9657;45.940;12.840;2023-03-23T07:33:24;16.40;66.60
19050;DHT22;9657;45.940;12.840;2023-03-23T07:35:52;16.40;66.60
19050;DHT22;9657;45.940;12.840;2023-03-23T07:38:20;16.40;66.60
19050;DHT22;9657;45.940;12.840;2023-03-23T07:40:47;16.40;66.60
19050;DHT22;9657;45.940;12.840;2023-03-23T07:43:14;16.40;66.70
19050;DHT22;9657;45.940;12.840;2023-03-23T07:45:41;16.50;66.70
19050;DHT22;9657;45.940;12.840;2023-03-23T07:48:08;16.40;66.70
19050;DHT22;9657;45.940;12.840;2023-03-23T07:50:35;16.40;66.70
19050;DHT22;9657;45.940;12.840;2023-03-23T07:53:03;16.40;66.70
19050;DHT22;9657;45.940;12.840;2023-03-23T07:55:32;16.40;66.70
19050;DHT22;9657;45.940;12.840;2023-03-23T07:57:59;16.40;66.80
19050;DHT22;9657;45.940;12.840;2023-03-23T08:00:26;16.40;66.90
19050;DHT22;9657;45.940;12.840;2023-03-23T08:02:55;16.40;67.00
19050;DHT22;9657;45.940;12.840;2023-03-23T08:05:25;16.40;67.10
19050;DHT22;9657;45.940;12.840;2023-03-23T08:07:54;16.40;67.10
19050;DHT22;9657;45.940;12.840;2023-03-23T08:10:22;16.40;67.10
19050;DHT22;9657;45.940;12.840;2023-03-23T08:12:53;16.40;67.20
19050;DHT22;9657;45.940;12.840;2023-03-23T08:15:21;16.40;67.20
19050;DHT22;9657;45.940;12.840;2023-03-23T08:17:49;16.40;67.30
19050;DHT22;9657;45.940;12.840;2023-03-23T08:20:17;16.50;67.30
19050;DHT22;9657;45.940;12.840;2023-03-23T08:22:51;16.50;67.30
19050;DHT22;9657;45.940;12.840;2023-03-23T08:25:19;16.50;67.30
19050;DHT22;9657;45.940;12.840;2023-03-23T08:27:46;16.50;67.30
19050;DHT22;9657;45.940;12.840;2023-03-23T08:30:17;16.50;67.40
19050;DHT22;9657;45.940;12.840;2023-03-23T08:32:45;16.50;67.30
19050;DHT22;9657;45.940;12.840;2023-03-23T08:35:13;16.50;67.30
19050;DHT22;9657;45.940;12.840;2023-03-23T08:37:40;16.50;67.30
19050;DHT22;9657;45.940;12.840;2023-03-23T08:40:09;16.50;67.30
19050;DHT22;9657;45.940;12.840;2023-03-23T08:42:37;16.50;68.10
19050;DHT22;9657;45.940;12.840;2023-03-23T08:45:06;16.50;67.30
19050;DHT22;9657;45.940;12.840;2023-03-23T08:47:36;16.50;67.30
19050;DHT22;9657;45.940;12.840;2023-03-23T08:50:05;16.50;67.30
19050;DHT22;9657;45.940;12.840;2023-03-23T08:52:32;16.50;67.50
19050;DHT22;9657;45.940;12.840;2023-03-23T08:54:59;16.50;67.50
19050;DHT22;9657;45.940;12.840;2023-03-23T08:57:27;16.50;67.50
19050;DHT22;9657;45.940;12.840;2023-03-23T08:59:55;16.50;67.40
19050;DHT22;9657;45.940;12.840;2023-03-23T09:02:25;16.50;67.50
19050;DHT22;9657;45.940;12.840;2023-03-23T09:04:54;16.50;67.50
19050;DHT22;9657;45.940;12.840;2023-03-23T09:07:21;16.50;67.40
19050;DHT22;9657;45.940;12.840;2023-03-23T09:09:49;16.50;67.40
19050;DHT22;9657;45.940;12.840;2023-03-23T09:12:16;16.50;67.50
19050;DHT22;9657;45.940;12.840;2023-03-23T09:14:44;16.50;67.40
19050;DHT22;9657;45.940;12.840;2023-03-23T09:17:12;16.50;67.40
19050;DHT22;9657;45.940;12.840;2023-03-23T09:19:39;16.50;67.50
19050;DHT22;9657;45.940;12.840;2023-03-23T09:22:08;16.50;67.50
19050;DHT22;9657;45.940;12.840;2023-03-23T09:24:35;16.60;67.60
19050;DHT22;9657;45.940;12.840;2023-03-23T09:27:03;16.60;67.60
19050;DHT22;9657;45.940;12.840;2023-03-23T09:29:30;16.60;67.60
19050;DHT22;9657;45.940;12.840;2023-03-23T09:31:57;16.60;67.60
19050;DHT22;9657;45.940;12.840;2023-03-23T09:34:24;16.60;67.60
19050;DHT22;9657;45.940;12.840;2023-03-23T09:36:51;16.60;67.70
19050;DHT22;9657;45.940;12.840;2023-03-23T09:39:19;16.60;67.70
19050;DHT22;9657;45.940;12.840;2023-03-23T09:41:59;16.60;67.70
19050;DHT22;9657;45.940;12.840;2023-03-23T09:44:39;16.60;67.70
19050;DHT22;9657;45.940;12.840;2023-03-23T09:47:15;16.60;67.70
19050;DHT22;9657;45.940;12.840;2023-03-23T09:49:50;16.60;67.80
19050;DHT22;9657;45.940;12.840;2023-03-23T09:52:19;16.60;67.80
19050;DHT22;9657;45.940;12.840;2023-03-23T09:54:48;16.60;67.80
19050;DHT22;9657;45.940;12.840;2023-03-23T09:57:22;16.60;67.80
19050;DHT22;9657;45.940;12.840;2023-03-23T09:59:54;16.60;67.80
19050;DHT22;9657;45.940;12.840;2023-03-23T10:02:27;16.60;67.80
19050;DHT22;9657;45.940;12.840;2023-03-23T10:04:58;16.70;67.80
19050;DHT22;9657;45.940;12.840;2023-03-23T10:07:30;16.70;67.80
19050;DHT22;9657;45.940;12.840;2023-03-23T10:10:01;16.70;67.80
19050;DHT22;9657;45.940;12.840;2023-03-23T10:12:32;16.70;67.80
19050;DHT22;9657;45.940;12.840;2023-03-23T10:15:15;16.70;67.70
19050;DHT22;9657;45.940;12.840;2023-03-23T10:17:47;16.70;67.70
19050;DHT22;9657;45.940;12.840;2023-03-23T10:20:27;16.70;67.70
19050;DHT22;9657;45.940;12.840;2023-03-23T10:23:00;16.70;67.70
19050;DHT22;9657;45.940;12.840;2023-03-23T10:25:34;16.70;67.60
19050;DHT22;9657;45.940;12.840;2023-03-23T10:28:05;16.70;67.60
19050;DHT22;9657;45.940;12.840;2023-03-23T10:30:36;16.70;67.70
19050;DHT22;9657;45.940;12.840;2023-03-23T10:33:11;16.80;67.80
19050;DHT22;9657;45.940;12.840;2023-03-23T10:35:45;16.70;67.80
19050;DHT22;9657;45.940;12.840;2023-03-23T10:38:17;16.70;67.80
19050;DHT22;9657;45.940;12.840;2023-03-23T10:40:50;16.80;67.80
19050;DHT22;9657;45.940;12.840;2023-03-23T10:43:19;16.80;67.80
19050;DHT22;9657;45.940;12.840;2023-03-23T10:45:54;16.80;67.80
19050;DHT22;9657;45.940;12.840;2023-03-23T10:48:27;16.80;67.70
19050;DHT22;9657;45.940;12.840;2023-03-23T10:50:58;16.80;67.60
19050;DHT22;9657;45.940;12.840;2023-03-23T10:53:31;16.80;67.60
19050;DHT22;9657;45.940;12.840;2023-03-23T10:56:01;16.80;67.60
19050;DHT22;9657;45.940;12.840;2023-03-23T10:58:29;16.80;67.50
19050;DHT22;9657;45.940;12.840;2023-03-23T11:00:58;16.80;67.50
19050;DHT22;9657;45.940;12.840;2023-03-23T11:03:38;16.80;67.40
19050;DHT22;9657;45.940;12.840;2023-03-23T11:06:07;16.80;67.30
19050;DHT22;9657;45.940;12.840;2023-03-23T11:08:38;16.80;67.20
19050;DHT22;9657;45.940;12.840;2023-03-23T11:11:17;16.80;67.10
19050;DHT22;9657;45.940;12.840;2023-03-23T11:13:46;16.80;67.00
19050;DHT22;9657;45.940;12.840;2023-03-23T11:16:23;16.80;67.00
19050;DHT22;9657;45.940;12.840;2023-03-23T11:18:50;16.80;66.90
19050;DHT22;9657;45.940;12.840;2023-03-23T11:21:20;16.80;66.80
19050;DHT22;9657;45.940;12.840;2023-03-23T11:23:50;16.90;66.80
19050;DHT22;9657;45.940;12.840;2023-03-23T11:26:22;16.90;66.80
19050;DHT22;9657;45.940;12.840;2023-03-23T11:28:55;16.90;66.80
19050;DHT22;9657;45.940;12.840;2023-03-23T11:31:23;16.90;66.80
19050;DHT22;9657;45.940;12.840;2023-03-23T11:33:54;16.90;66.80
19050;DHT22;9657;45.940;12.840;2023-03-23T11:36:33;16.90;66.80
19050;DHT22;9657;45.940;12.840;2023-03-23T11:39:00;16.90;66.70
19050;DHT22;9657;45.940;12.840;2023-03-23T11:41:33;16.90;66.80
19050;DHT22;9657;45.940;12.840;2023-03-23T11:44:08;16.90;66.80
19050;DHT22;9657;45.940;12.840;2023-03-23T11:46:42;16.90;66.80
19050;DHT22;9657;45.940;12.840;2023-03-23T11:49:24;16.90;66.60
19050;DHT22;9657;45.940;12.840;2023-03-23T11:51:55;16.90;66.70
19050;DHT22;9657;45.940;12.840;2023-03-23T11:54:32;16.90;66.60
19050;DHT22;9657;45.940;12.840;2023-03-23T11:57:05;16.90;66.60
19050;DHT22;9657;45.940;12.840;2023-03-23T11:59:34;16.90;66.60
19050;DHT22;9657;45.940;12.840;2023-03-23T12:02:10;17.00;66.70
19050;DHT22;9657;45.940;12.840;2023-03-23T12:04:52;17.00;66.70
19050;DHT22;9657;45.940;12.840;2023-03-23T12:07:46;16.90;66.50
19050;DHT22;9657;45.940;12.840;2023-03-23T12:10:26;17.00;66.60
19050;DHT22;9657;45.940;12.840;2023-03-23T12:13:05;17.00;66.60
19050;DHT22;9657;45.940;12.840;2023-03-23T12:15:41;17.00;66.60
19050;DHT22;9657;45.940;12.840;2023-03-23T12:18:17;17.00;66.50
19050;DHT22;9657;45.940;12.840;2023-03-23T12:20:55;17.00;66.50
19050;DHT22;9657;45.940;12.840;2023-03-23T12:23:25;17.00;66.50
19050;DHT22;9657;45.940;12.840;2023-03-23T12:26:14;17.00;66.40
19050;DHT22;9657;45.940;12.840;2023-03-23T12:29:06;17.00;66.40
19050;DHT22;9657;45.940;12.840;2023-03-23T12:31:41;17.00;66.40
19050;DHT22;9657;45.940;12.840;2023-03-23T12:34:20;17.00;66.40
19050;DHT22;9657;45.940;12.840;2023-03-23T12:37:08;17.00;66.30
19050;DHT22;9657;45.940;12.840;2023-03-23T12:39:55;17.00;66.30
19050;DHT22;9657;45.940;12.840;2023-03-23T12:42:29;17.00;66.30
19050;DHT22;9657;45.940;12.840;2023-03-23T12:45:04;17.00;66.30
19050;DHT22;9657;45.940;12.840;2023-03-23T12:47:38;17.00;66.30
19050;DHT22;9657;45.940;12.840;2023-03-23T12:50:13;17.00;66.30
19050;DHT22;9657;45.940;12.840;2023-03-23T12:52:48;17.00;66.20
19050;DHT22;9657;45.940;12.840;2023-03-23T12:55:21;17.00;66.30
19050;DHT22;9657;45.940;12.840;2023-03-23T12:57:52;17.00;67.00
19050;DHT22;9657;45.940;12.840;2023-03-23T13:00:27;17.10;66.30
19050;DHT22;9657;45.940;12.840;2023-03-23T13:03:00;17.10;66.20
19050;DHT22;9657;45.940;12.840;2023-03-23T13:05:40;17.10;66.20
19050;DHT22;9657;45.940;12.840;2023-03-23T13:08:14;17.10;66.10
19050;DHT22;9657;45.940;12.840;2023-03-23T13:10:46;17.10;66.10
19050;DHT22;9657;45.940;12.840;2023-03-23T13:13:16;17.10;66.10
19050;DHT22;9657;45.940;12.840;2023-03-23T13:15:53;17.10;66.20
19050;DHT22;9657;45.940;12.840;2023-03-23T13:18:29;17.10;66.30
19050;DHT22;9657;45.940;12.840;2023-03-23T13:21:08;17.10;66.30
19050;DHT22;9657;45.940;12.840;2023-03-23T13:23:38;17.10;66.30
19050;DHT22;9657;45.940;12.840;2023-03-23T13:26:07;17.10;66.40
19050;DHT22;9657;45.940;12.840;2023-03-23T13:28:54;17.10;66.40
19050;DHT22;9657;45.940;12.840;2023-03-23T13:31:26;17.10;66.40
19050;DHT22;9657;45.940;12.840;2023-03-23T13:34:00;17.10;66.40
19050;DHT22;9657;45.940;12.840;2023-03-23T13:36:30;17.10;66.40
19050;DHT22;9657;45.940;12.840;2023-03-23T13:38:59;17.10;66.40
19050;DHT22;9657;45.940;12.840;2023-03-23T13:41:28;17.10;66.40
19050;DHT22;9657;45.940;12.840;2023-03-23T13:44:14;17.10;66.40
19050;DHT22;9657;45.940;12.840;2023-03-23T13:46:54;17.10;66.40
19050;DHT22;9657;45.940;12.840;2023-03-23T13:49:22;17.10;66.40
19050;DHT22;9657;45.940;12.840;2023-03-23T13:54:44;17.10;66.30
19050;DHT22;9657;45.940;12.840;2023-03-23T13:57:32;17.20;66.40
19050;DHT22;9657;45.940;12.840;2023-03-23T14:00:31;17.20;66.30
19050;DHT22;9657;45.940;12.840;2023-03-23T14:03:03;17.20;66.30
19050;DHT22;9657;45.940;12.840;2023-03-23T14:05:34;17.20;66.30
19050;DHT22;9657;45.940;12.840;2023-03-23T14:08:09;17.20;66.30
19050;DHT22;9657;45.940;12.840;2023-03-23T14:10:40;17.20;66.30
19050;DHT22;9657;45.940;12.840;2023-03-23T14:13:16;17.20;66.30
19050;DHT22;9657;45.940;12.840;2023-03-23T14:15:44;17.20;66.30
19050;DHT22;9657;45.940;12.840;2023-03-23T14:18:16;17.20;66.30
19050;DHT22;9657;45.940;12.840;2023-03-23T14:20:45;17.20;66.10
19050;DHT22;9657;45.940;12.840;2023-03-23T14:23:16;17.20;66.10
19050;DHT22;9657;45.940;12.840;2023-03-23T14:25:44;17.20;66.10
19050;DHT22;9657;45.940;12.840;2023-03-23T14:28:21;17.20;66.10
19050;DHT22;9657;45.940;12.840;2023-03-23T14:30:52;17.30;66.10
19050;DHT22;9657;45.940;12.840;2023-03-23T14:33:21;17.30;66.10
19050;DHT22;9657;45.940;12.840;2023-03-23T14:35:48;17.20;66.00
19050;DHT22;9657;45.940;12.840;2023-03-23T14:38:17;17.20;65.90
19050;DHT22;9657;45.940;12.840;2023-03-23T14:40:46;17.20;65.90
19050;DHT22;9657;45.940;12.840;2023-03-23T14:43:16;17.20;66.00
19050;DHT22;9657;45.940;12.840;2023-03-23T14:45:44;17.20;66.30
19050;DHT22;9657;45.940;12.840;2023-03-23T14:48:14;17.30;66.40
19050;DHT22;9657;45.940;12.840;2023-03-23T14:50:49;17.30;66.80
19050;DHT22;9657;45.940;12.840;2023-03-23T14:53:19;17.30;66.80
19050;DHT22;9657;45.940;12.840;2023-03-23T14:55:49;17.30;66.90
19050;DHT22;9657;45.940;12.840;2023-03-23T14:58:19;17.30;67.30
19050;DHT22;9657;45.940;12.840;2023-03-23T15:00:50;17.30;67.10
19050;DHT22;9657;45.940;12.840;2023-03-23T15:03:21;17.30;67.20
19050;DHT22;9657;45.940;12.840;2023-03-23T15:05:53;17.30;67.00
19050;DHT22;9657;45.940;12.840;2023-03-23T15:08:24;17.30;66.90
19050;DHT22;9657;45.940;12.840;2023-03-23T15:10:58;17.30;66.90
19050;DHT22;9657;45.940;12.840;2023-03-23T15:13:26;17.30;66.90
19050;DHT22;9657;45.940;12.840;2023-03-23T15:16:02;17.40;67.00
19050;DHT22;9657;45.940;12.840;2023-03-23T15:18:33;17.40;67.10
19050;DHT22;9657;45.940;12.840;2023-03-23T15:21:11;17.40;67.10
19050;DHT22;9657;45.940;12.840;2023-03-23T15:23:42;17.40;67.10
19050;DHT22;9657;45.940;12.840;2023-03-23T15:26:24;17.40;67.10
19050;DHT22;9657;45.940;12.840;2023-03-23T15:29:14;17.40;67.10
19050;DHT22;9657;45.940;12.840;2023-03-23T15:31:43;17.40;67.10
19050;DHT22;9657;45.940;12.840;2023-03-23T15:34:19;17.40;67.10
19050;DHT22;9657;45.940;12.840;2023-03-23T15:36:54;17.40;67.10
19050;DHT22;9657;45.940;12.840;2023-03-23T15:39:22;17.40;67.10
19050;DHT22;9657;45.940;12.840;2023-03-23T15:41:51;17.40;67.00
19050;DHT22;9657;45.940;12.840;2023-03-23T15:44:29;17.40;67.00
19050;DHT22;9657;45.940;12.840;2023-03-23T15:47:33;17.40;67.00
19050;DHT22;9657;45.940;12.840;2023-03-23T15:50:07;17.40;67.00
19050;DHT22;9657;45.940;12.840;2023-03-23T15:52:36;17.40;66.90
19050;DHT22;9657;45.940;12.840;2023-03-23T15:55:14;17.40;66.80
19050;DHT22;9657;45.940;12.840;2023-03-23T15:57:43;17.40;66.70
19050;DHT22;9657;45.940;12.840;2023-03-23T16:00:11;17.40;66.60
19050;DHT22;9657;45.940;12.840;2023-03-23T16:02:38;17.40;66.60
19050;DHT22;9657;45.940;12.840;2023-03-23T16:05:08;17.40;66.50
19050;DHT22;9657;45.940;12.840;2023-03-23T16:07:37;17.40;66.50